createdAt,value
2023-10-11T00:00:29.309Z,13.55
2023-10-11T00:02:57.521Z,13.48
2023-10-11T00:05:25.552Z,13.57
2023-10-11T00:08:05.229Z,13.60
2023-10-11T00:10:32.268Z,13.37
2023-10-11T00:12:59.523Z,13.41
2023-10-11T00:15:30.024Z,13.22
2023-10-11T00:17:57.500Z,13.25
2023-10-11T00:20:40.068Z,13.22
2023-10-11T00:23:06.854Z,13.27
2023-10-11T00:25:33.550Z,13.17
2023-10-11T00:28:00.042Z,13.21
2023-10-11T00:30:30.775Z,13.29
2023-10-11T00:32:58.277Z,13.05
2023-10-11T00:35:26.118Z,13.15
2023-10-11T00:37:54.525Z,13.34
2023-10-11T00:40:26.960Z,13.05
2023-10-11T00:42:53.878Z,13.19
2023-10-11T00:45:23.249Z,13.11
2023-10-11T00:47:54.032Z,13.06
2023-10-11T00:50:22.536Z,12.95
2023-10-11T00:52:49.711Z,13.10
2023-10-11T00:55:21.216Z,12.85
2023-10-11T00:57:49.807Z,12.92
2023-10-11T01:00:22.470Z,12.82
2023-10-11T01:02:53.226Z,12.80
2023-10-11T01:05:20.719Z,12.65
2023-10-11T01:07:50.790Z,12.71
2023-10-11T01:10:23.847Z,12.39
2023-10-11T01:12:50.848Z,12.60
2023-10-11T01:15:23.364Z,12.73
2023-10-11T01:17:50.035Z,12.78
2023-10-11T01:20:18.309Z,12.86
2023-10-11T01:22:46.018Z,12.82
2023-10-11T01:25:14.163Z,12.79
2023-10-11T01:27:41.398Z,12.84
2023-10-11T01:30:10.447Z,12.68
2023-10-11T01:32:42.460Z,12.78
2023-10-11T01:35:20.697Z,12.63
2023-10-11T01:37:49.639Z,12.68
2023-10-11T01:40:25.338Z,12.54
2023-10-11T01:42:53.004Z,12.61
2023-10-11T01:45:24.017Z,12.31
2023-10-11T01:47:52.201Z,12.70
2023-10-11T01:50:19.464Z,12.43
2023-10-11T01:52:48.940Z,12.41
2023-10-11T01:55:16.412Z,12.41
2023-10-11T01:57:46.340Z,12.37
2023-10-11T02:00:15.056Z,12.26
2023-10-11T02:02:48.525Z,12.24
2023-10-11T02:05:16.490Z,12.59
2023-10-11T02:07:43.093Z,12.35
2023-10-11T02:10:14.638Z,12.43
2023-10-11T02:12:45.783Z,12.19
2023-10-11T02:15:24.510Z,12.15
2023-10-11T02:17:52.596Z,12.14
2023-10-11T02:20:22.955Z,12.25
2023-10-11T02:22:53.012Z,12.31
2023-10-11T02:25:21.706Z,11.92
2023-10-11T02:27:51.431Z,11.98
2023-10-11T02:30:24.116Z,12.08
2023-10-11T02:32:54.520Z,12.10
2023-10-11T02:35:21.972Z,12.10
2023-10-11T02:37:48.864Z,12.11
2023-10-11T02:40:24.178Z,12.21
2023-10-11T02:42:57.263Z,12.15
2023-10-11T02:45:24.434Z,12.04
2023-10-11T02:48:00.242Z,12.21
2023-10-11T02:50:27.281Z,12.11
2023-10-11T02:53:01.032Z,12.05
2023-10-11T02:55:28.329Z,12.19
2023-10-11T02:58:07.172Z,12.22
2023-10-11T03:00:35.364Z,12.00
2023-10-11T03:03:02.135Z,12.14
2023-10-11T03:05:29.131Z,12.05
2023-10-11T03:08:14.599Z,12.17
2023-10-11T03:10:45.306Z,12.12
2023-10-11T03:13:20.494Z,12.14
2023-10-11T03:15:55.860Z,12.06
2023-10-11T03:18:33.704Z,11.97
2023-10-11T03:21:20.610Z,11.83
2023-10-11T03:23:55.446Z,11.81
2023-10-11T03:26:32.012Z,11.68
2023-10-11T03:29:19.626Z,11.90
2023-10-11T03:31:46.869Z,11.97
2023-10-11T03:34:13.482Z,11.79
2023-10-11T03:37:00.819Z,11.85
2023-10-11T03:39:34.734Z,11.78
2023-10-11T03:42:13.361Z,11.96
2023-10-11T03:44:41.701Z,11.73
2023-10-11T03:47:09.742Z,11.78
2023-10-11T03:49:50.789Z,11.79
2023-10-11T03:52:21.017Z,11.67
2023-10-11T03:54:48.458Z,11.50
2023-10-11T03:57:18.493Z,11.35
2023-10-11T03:59:49.673Z,11.61
2023-10-11T04:02:18.731Z,11.50
2023-10-11T04:04:50.038Z,11.47
2023-10-11T04:07:18.802Z,11.34
2023-10-11T04:09:47.670Z,11.49
2023-10-11T04:12:15.459Z,11.46
2023-10-11T04:14:45.797Z,11.48
2023-10-11T04:17:27.007Z,11.42
2023-10-11T04:20:01.618Z,11.30
2023-10-11T04:22:32.281Z,11.19
2023-10-11T04:25:07.747Z,11.21
2023-10-11T04:27:35.751Z,11.36
2023-10-11T04:30:18.779Z,11.36
2023-10-11T04:32:49.187Z,11.34
2023-10-11T04:35:23.218Z,11.34
2023-10-11T04:37:55.747Z,11.43
2023-10-11T04:40:39.743Z,11.21
2023-10-11T04:43:12.958Z,11.30
2023-10-11T04:48:30.412Z,11.24
2023-10-11T04:51:07.974Z,11.39
2023-10-11T04:53:48.181Z,11.47
2023-10-11T04:56:34.757Z,11.21
2023-10-11T04:59:07.568Z,11.19
2023-10-11T05:01:55.552Z,11.26
2023-10-11T05:04:42.062Z,11.34
2023-10-11T05:07:09.637Z,11.39
2023-10-11T05:09:39.819Z,11.52
2023-10-11T05:12:13.831Z,11.40
2023-10-11T05:14:57.917Z,11.24
2023-10-11T05:17:25.200Z,11.01
2023-10-11T05:20:12.118Z,11.15
2023-10-11T05:22:41.930Z,11.05
2023-10-11T05:25:31.473Z,11.17
2023-10-11T05:27:58.695Z,11.04
2023-10-11T05:30:26.564Z,10.82
2023-10-11T05:32:54.940Z,10.72
2023-10-11T05:35:25.614Z,10.69
2023-10-11T05:38:15.691Z,10.84
2023-10-11T05:41:02.211Z,10.51
2023-10-11T05:43:48.684Z,10.46
2023-10-11T05:46:35.169Z,10.56
2023-10-11T05:49:21.731Z,10.53
2023-10-11T05:51:49.468Z,10.34
2023-10-11T05:54:17.593Z,10.38
2023-10-11T05:56:48.619Z,10.47
2023-10-11T05:59:15.701Z,10.50
2023-10-11T06:01:46.182Z,10.38
2023-10-11T06:04:15.302Z,10.42
2023-10-11T06:06:43.696Z,10.51
2023-10-11T06:09:18.167Z,10.71
2023-10-11T06:11:50.077Z,10.73
2023-10-11T06:14:19.784Z,10.53
2023-10-11T06:16:51.136Z,10.64
2023-10-11T06:19:18.667Z,10.17
2023-10-11T06:21:59.200Z,10.54
2023-10-11T06:24:45.360Z,10.45
2023-10-11T06:27:11.997Z,11.08
2023-10-11T06:29:46.277Z,11.33
2023-10-11T06:32:19.804Z,12.19
2023-10-11T06:34:48.619Z,12.56
2023-10-11T06:37:19.189Z,12.90
2023-10-11T06:39:47.919Z,12.68
2023-10-11T06:42:22.262Z,13.87
2023-10-11T06:44:52.798Z,14.81
2023-10-11T06:47:22.281Z,14.67
2023-10-11T06:49:56.344Z,15.16
2023-10-11T06:52:26.616Z,15.09
2023-10-11T06:55:15.470Z,15.64
2023-10-11T06:57:51.537Z,16.12
2023-10-11T07:00:23.851Z,16.60
2023-10-11T07:02:53.939Z,16.72
2023-10-11T07:05:22.425Z,16.87
2023-10-11T07:07:49.155Z,15.91
2023-10-11T07:10:29.713Z,16.87
2023-10-11T07:13:06.705Z,16.87
2023-10-11T07:15:53.590Z,16.38
2023-10-11T07:18:29.413Z,16.72
2023-10-11T07:21:08.420Z,17.13
2023-10-11T07:23:54.304Z,17.49
2023-10-11T07:26:24.403Z,16.48
2023-10-11T07:28:53.313Z,17.55
2023-10-11T07:31:22.362Z,17.67
2023-10-11T07:33:56.561Z,17.72
2023-10-11T07:36:24.644Z,16.83
2023-10-11T07:38:57.185Z,18.08
2023-10-11T07:41:29.561Z,17.98
2023-10-11T07:43:57.751Z,18.60
2023-10-11T07:46:25.777Z,17.86
2023-10-11T07:49:00.959Z,18.01
2023-10-11T07:51:27.562Z,16.73
2023-10-11T07:53:55.444Z,17.30
2023-10-11T07:56:22.074Z,16.38
2023-10-11T07:58:49.465Z,17.15
2023-10-11T08:01:17.753Z,17.77
2023-10-11T08:03:47.646Z,17.84
2023-10-11T08:06:15.834Z,18.76
2023-10-11T08:08:44.356Z,18.74
2023-10-11T08:11:29.009Z,18.80
2023-10-11T08:14:02.183Z,19.12
2023-10-11T08:16:29.716Z,19.02
2023-10-11T08:18:56.250Z,19.25
2023-10-11T08:21:23.327Z,19.41
2023-10-11T08:23:51.610Z,19.14
2023-10-11T08:26:20.867Z,19.55
2023-10-11T08:28:49.284Z,19.08
2023-10-11T08:31:27.712Z,19.05
2023-10-11T08:33:54.779Z,19.26
2023-10-11T08:36:22.631Z,20.24
2023-10-11T08:38:49.309Z,20.81
2023-10-11T08:41:16.921Z,21.22
2023-10-11T08:43:44.668Z,20.47
2023-10-11T08:46:13.807Z,20.04
2023-10-11T08:48:40.598Z,20.89
2023-10-11T08:51:14.734Z,20.74
2023-10-11T08:53:48.165Z,21.17
2023-10-11T08:56:16.440Z,21.26
2023-10-11T08:58:43.297Z,21.10
2023-10-11T09:01:09.878Z,21.35
2023-10-11T09:03:43.866Z,21.26
2023-10-11T09:06:23.458Z,20.07
2023-10-11T09:08:52.487Z,21.10
2023-10-11T09:11:35.056Z,21.06
2023-10-11T09:14:28.149Z,21.12
2023-10-11T09:17:03.803Z,21.78
2023-10-11T09:19:33.997Z,21.64
2023-10-11T09:22:19.318Z,22.00
2023-10-11T09:24:46.877Z,22.18
2023-10-11T09:27:17.617Z,22.26
2023-10-11T09:29:48.261Z,23.13
2023-10-11T09:32:20.948Z,22.74
2023-10-11T09:34:48.630Z,24.11
2023-10-11T09:37:15.376Z,23.69
2023-10-11T09:39:44.550Z,23.66
2023-10-11T09:42:15.557Z,24.17
2023-10-11T09:44:46.909Z,24.21
2023-10-11T09:47:18.761Z,24.26
2023-10-11T09:49:48.580Z,24.05
2023-10-11T09:52:18.010Z,24.24
2023-10-11T09:54:47.832Z,24.32
2023-10-11T09:57:54.338Z,25.02
2023-10-11T10:00:45.004Z,24.62
2023-10-11T10:03:14.746Z,25.24
2023-10-11T10:06:21.899Z,24.38
2023-10-11T10:09:19.629Z,25.15
2023-10-11T10:12:22.928Z,24.90
2023-10-11T10:15:05.551Z,25.39
2023-10-11T10:17:32.223Z,25.39
2023-10-11T10:20:45.335Z,25.63
2023-10-11T10:23:15.270Z,25.76
2023-10-11T10:25:48.144Z,26.08
2023-10-11T10:28:38.278Z,25.92
2023-10-11T10:31:10.840Z,25.41
2023-10-11T10:33:38.597Z,25.79
2023-10-11T10:36:21.893Z,26.23
2023-10-11T10:39:24.081Z,26.24
2023-10-11T10:42:13.543Z,26.57
2023-10-11T10:44:57.159Z,26.27
2023-10-11T10:47:30.031Z,26.23
2023-10-11T10:49:58.100Z,25.51
2023-10-11T10:52:31.483Z,25.59
2023-10-11T10:55:03.251Z,25.88
2023-10-11T10:57:34.875Z,26.63
2023-10-11T11:00:21.767Z,26.62
2023-10-11T11:02:51.014Z,26.46
2023-10-11T11:05:26.604Z,26.76
2023-10-11T11:07:59.356Z,25.99
2023-10-11T11:10:31.846Z,26.62
2023-10-11T11:12:58.514Z,26.64
2023-10-11T11:15:38.182Z,26.85
2023-10-11T11:18:05.255Z,26.77
2023-10-11T11:20:33.698Z,26.97
2023-10-11T11:23:00.853Z,26.90
2023-10-11T11:25:27.467Z,27.12
2023-10-11T11:28:16.883Z,26.77
2023-10-11T11:31:22.052Z,26.58
2023-10-11T11:34:05.976Z,26.63
2023-10-11T11:36:35.930Z,26.95
2023-10-11T11:39:23.394Z,26.91
2023-10-11T11:41:56.214Z,26.85
2023-10-11T11:44:25.883Z,26.70
2023-10-11T11:46:58.241Z,26.68
2023-10-11T11:49:27.945Z,26.51
2023-10-11T11:51:56.721Z,26.65
2023-10-11T11:54:29.712Z,27.05
2023-10-11T11:56:58.554Z,27.55
2023-10-11T11:59:30.456Z,26.81
2023-10-11T12:02:00.772Z,27.08
2023-10-11T12:04:30.737Z,26.58
2023-10-11T12:07:03.818Z,26.84
2023-10-11T12:09:44.710Z,27.03
2023-10-11T12:12:18.572Z,26.92
2023-10-11T12:14:45.338Z,27.17
2023-10-11T12:17:11.839Z,26.85
2023-10-11T12:19:39.916Z,26.66
2023-10-11T12:22:06.939Z,26.63
2023-10-11T12:24:33.689Z,26.73
2023-10-11T12:27:00.721Z,26.81
2023-10-11T12:29:27.828Z,26.58
2023-10-11T12:31:55.535Z,26.89
2023-10-11T12:34:25.995Z,27.40
2023-10-11T12:36:54.576Z,26.90
2023-10-11T12:39:22.277Z,26.62
2023-10-11T12:41:51.662Z,26.31
2023-10-11T12:44:20.014Z,25.95
2023-10-11T12:46:50.644Z,26.58
2023-10-11T12:49:19.734Z,26.63
2023-10-11T12:51:47.983Z,27.24
2023-10-11T12:54:16.201Z,27.10
2023-10-11T12:56:43.955Z,27.12
2023-10-11T12:59:13.948Z,26.37
2023-10-11T13:01:50.942Z,26.81
2023-10-11T13:04:20.003Z,27.01
2023-10-11T13:06:50.841Z,27.05
2023-10-11T13:09:28.889Z,26.50
2023-10-11T13:11:58.151Z,25.97
2023-10-11T13:14:26.309Z,26.57
2023-10-11T13:16:59.538Z,26.39
2023-10-11T13:19:27.397Z,26.84
2023-10-11T13:21:56.538Z,26.45
2023-10-11T13:24:27.296Z,26.35
2023-10-11T13:26:58.496Z,26.85
2023-10-11T13:29:28.510Z,26.15
2023-10-11T13:31:59.262Z,26.05
2023-10-11T13:34:30.141Z,26.16
2023-10-11T13:36:58.973Z,26.04
2023-10-11T13:39:27.458Z,26.42
2023-10-11T13:42:05.280Z,25.86
2023-10-11T13:44:34.174Z,26.13
2023-10-11T13:47:02.288Z,26.05
2023-10-11T13:49:31.867Z,25.83
2023-10-11T13:52:04.011Z,25.98
2023-10-11T13:54:35.433Z,25.94
2023-10-11T13:57:08.659Z,25.74
2023-10-11T13:59:46.671Z,25.40
2023-10-11T14:02:35.629Z,25.69
2023-10-11T14:05:08.405Z,25.78
2023-10-11T14:07:38.078Z,25.87
2023-10-11T14:10:16.677Z,25.31
2023-10-11T14:12:44.800Z,25.36
2023-10-11T14:15:18.662Z,25.39
2023-10-11T14:17:48.496Z,25.39
2023-10-11T14:20:28.168Z,25.52
2023-10-11T14:22:55.183Z,25.04
2023-10-11T14:25:21.814Z,25.02
2023-10-11T14:27:48.884Z,25.13
2023-10-11T14:30:16.485Z,24.65
2023-10-11T14:32:46.450Z,24.65
2023-10-11T14:35:16.427Z,24.54
2023-10-11T14:37:44.107Z,24.51
2023-10-11T14:40:17.573Z,24.46
2023-10-11T14:42:47.816Z,24.32
2023-10-11T14:45:19.119Z,24.30
2023-10-11T14:47:48.953Z,23.48
2023-10-11T14:50:18.426Z,23.52
2023-10-11T14:52:46.903Z,23.47
2023-10-11T14:55:17.436Z,23.21
2023-10-11T14:57:52.158Z,23.04
2023-10-11T15:00:23.748Z,22.97
2023-10-11T15:02:52.554Z,22.59
2023-10-11T15:05:20.571Z,23.03
2023-10-11T15:07:52.884Z,22.70
2023-10-11T15:10:25.220Z,22.42
2023-10-11T15:12:55.977Z,22.29
2023-10-11T15:15:28.310Z,22.18
2023-10-11T15:17:57.246Z,22.11
2023-10-11T15:20:24.258Z,21.87
2023-10-11T15:22:53.103Z,22.02
2023-10-11T15:25:19.764Z,21.59
2023-10-11T15:27:46.440Z,21.75
2023-10-11T15:30:14.377Z,21.62
2023-10-11T15:32:41.426Z,21.41
2023-10-11T15:35:08.821Z,21.43
2023-10-11T15:37:35.340Z,21.32
2023-10-11T15:40:02.398Z,21.27
2023-10-11T15:42:29.371Z,21.22
2023-10-11T15:44:56.093Z,21.23
2023-10-11T15:47:23.506Z,20.69
2023-10-11T15:49:59.648Z,20.78
2023-10-11T15:52:26.358Z,20.81
2023-10-11T15:54:54.416Z,20.63
2023-10-11T15:57:21.112Z,20.88
2023-10-11T15:59:48.372Z,21.00
2023-10-11T16:02:15.502Z,20.81
2023-10-11T16:04:42.568Z,20.47
2023-10-11T16:07:09.228Z,20.54
2023-10-11T16:09:36.534Z,20.57
2023-10-11T16:12:04.052Z,20.21
2023-10-11T16:14:32.416Z,20.30
2023-10-11T16:16:59.092Z,20.19
2023-10-11T16:19:29.153Z,20.37
2023-10-11T16:21:57.228Z,20.10
2023-10-11T16:24:24.518Z,20.00
2023-10-11T16:26:54.733Z,19.97
2023-10-11T16:29:23.380Z,19.82
2023-10-11T16:31:50.604Z,19.79
2023-10-11T16:34:18.296Z,19.81
2023-10-11T16:36:46.149Z,19.63
2023-10-11T16:39:24.850Z,19.46
2023-10-11T16:41:59.429Z,19.64
2023-10-11T16:44:25.888Z,19.64
2023-10-11T16:46:54.947Z,19.58
2023-10-11T16:49:21.573Z,19.39
2023-10-11T16:51:48.294Z,19.29
2023-10-11T16:54:17.562Z,19.21
2023-10-11T16:56:45.371Z,19.24
2023-10-11T16:59:12.125Z,19.23
2023-10-11T17:01:38.693Z,19.08
2023-10-11T17:04:08.742Z,19.03
2023-10-11T17:06:35.788Z,18.96
2023-10-11T17:09:02.729Z,19.28
2023-10-11T17:11:31.007Z,19.32
2023-10-11T17:13:58.422Z,19.23
2023-10-11T17:16:27.746Z,19.19
2023-10-11T17:18:54.922Z,19.43
2023-10-11T17:21:21.684Z,19.46
2023-10-11T17:23:48.281Z,19.60
2023-10-11T17:26:16.189Z,19.29
2023-10-11T17:28:45.712Z,19.29
2023-10-11T17:31:14.508Z,19.14
2023-10-11T17:33:46.969Z,19.14
2023-10-11T17:36:14.000Z,19.06
2023-10-11T17:38:40.851Z,18.97
2023-10-11T17:41:10.177Z,19.16
2023-10-11T17:43:38.614Z,19.05
2023-10-11T17:46:07.822Z,18.93
2023-10-11T17:48:37.029Z,18.92
2023-10-11T17:51:07.973Z,19.15
2023-10-11T17:53:37.534Z,18.96
2023-10-11T17:56:05.517Z,19.03
2023-10-11T17:58:34.500Z,19.03
2023-10-11T18:01:01.822Z,19.11
2023-10-11T18:03:29.064Z,18.95
2023-10-11T18:05:56.867Z,19.02
2023-10-11T18:08:24.125Z,18.84
2023-10-11T18:10:50.725Z,18.82
2023-10-11T18:13:17.551Z,18.82
2023-10-11T18:15:44.467Z,18.98
2023-10-11T18:18:11.798Z,19.01
2023-10-11T18:20:39.287Z,19.00
2023-10-11T18:23:09.201Z,19.12
2023-10-11T18:25:37.177Z,19.16
2023-10-11T18:28:06.360Z,19.21
2023-10-11T18:30:35.488Z,19.26
2023-10-11T18:33:04.298Z,19.28
2023-10-11T18:35:32.430Z,19.17
2023-10-11T18:37:59.913Z,18.80
2023-10-11T18:40:27.610Z,18.78
2023-10-11T18:42:55.286Z,18.92
2023-10-11T18:45:23.838Z,18.86
2023-10-11T18:47:54.481Z,18.62
2023-10-11T18:50:25.104Z,19.29
2023-10-11T18:52:54.347Z,19.45
2023-10-11T18:55:23.112Z,19.22
2023-10-11T18:57:52.860Z,19.34
2023-10-11T19:00:24.043Z,19.45
2023-10-11T19:02:53.605Z,19.28
2023-10-11T19:05:23.070Z,19.18
2023-10-11T19:07:54.430Z,19.08
2023-10-11T19:10:21.654Z,19.41
2023-10-11T19:12:49.516Z,19.37
2023-10-11T19:15:18.534Z,19.63
2023-10-11T19:17:52.050Z,19.25
2023-10-11T19:20:24.676Z,19.03
2023-10-11T19:22:53.935Z,19.05
2023-10-11T19:25:21.908Z,19.26
2023-10-11T19:27:51.004Z,18.88
2023-10-11T19:30:22.117Z,18.92
2023-10-11T19:32:51.016Z,18.62
2023-10-11T19:35:20.287Z,18.61
2023-10-11T19:37:46.896Z,18.55
2023-10-11T19:40:19.829Z,18.51
2023-10-11T19:42:47.108Z,18.62
2023-10-11T19:45:19.021Z,18.69
2023-10-11T19:47:48.352Z,18.61
2023-10-11T19:50:16.665Z,18.25
2023-10-11T19:52:46.797Z,18.41
2023-10-11T19:55:14.529Z,18.36
2023-10-11T19:57:42.939Z,18.21
2023-10-11T20:00:11.748Z,18.13
2023-10-11T20:02:38.622Z,18.03
2023-10-11T20:05:08.313Z,18.09
2023-10-11T20:07:35.849Z,18.06
2023-10-11T20:10:02.333Z,18.13
2023-10-11T20:12:29.059Z,17.97
2023-10-11T20:14:55.610Z,17.93
2023-10-11T20:17:22.152Z,18.04
2023-10-11T20:19:48.910Z,18.09
2023-10-11T20:22:15.391Z,18.44
2023-10-11T20:24:41.956Z,18.51
2023-10-11T20:27:08.608Z,18.29
2023-10-11T20:29:37.771Z,18.61
2023-10-11T20:32:04.896Z,18.66
2023-10-11T20:34:32.385Z,18.67
2023-10-11T20:37:00.781Z,18.85
2023-10-11T20:39:30.796Z,18.92
2023-10-11T20:41:58.238Z,18.64
2023-10-11T20:44:26.428Z,18.98
2023-10-11T20:46:53.779Z,18.89
2023-10-11T20:49:20.767Z,18.88
2023-10-11T20:51:50.266Z,18.57
2023-10-11T20:54:19.946Z,18.58
2023-10-11T20:56:47.267Z,18.70
2023-10-11T20:59:15.410Z,18.64
2023-10-11T21:01:45.499Z,18.39
2023-10-11T21:04:13.796Z,18.65
2023-10-11T21:06:40.651Z,18.44
2023-10-11T21:09:07.288Z,18.40
2023-10-11T21:11:34.192Z,18.45
2023-10-11T21:14:02.230Z,18.65
2023-10-11T21:16:29.264Z,18.46
2023-10-11T21:18:57.631Z,18.63
2023-10-11T21:21:26.189Z,18.80
2023-10-11T21:23:55.146Z,18.71
2023-10-11T21:26:22.549Z,18.65
2023-10-11T21:28:54.292Z,18.63
2023-10-11T21:31:21.622Z,19.05
2023-10-11T21:33:48.548Z,18.75
2023-10-11T21:36:17.395Z,18.61
2023-10-11T21:38:47.978Z,19.12
2023-10-11T21:41:14.525Z,19.59
2023-10-11T21:43:41.587Z,19.37
2023-10-11T21:46:13.590Z,19.46
2023-10-11T21:48:41.329Z,19.54
2023-10-11T21:51:14.422Z,19.57
2023-10-11T21:53:42.670Z,19.93
2023-10-11T21:56:10.444Z,19.61
2023-10-11T21:58:39.199Z,19.36
2023-10-11T22:01:08.215Z,19.30
2023-10-11T22:03:35.075Z,19.44
2023-10-11T22:06:06.174Z,19.25
2023-10-11T22:08:34.658Z,19.27
2023-10-11T22:11:01.630Z,19.33
2023-10-11T22:13:33.143Z,19.21
2023-10-11T22:16:00.026Z,19.21
2023-10-11T22:18:30.537Z,19.37
2023-10-11T22:20:59.664Z,19.53
2023-10-11T22:23:26.583Z,19.22
2023-10-11T22:25:53.644Z,19.06
2023-10-11T22:28:20.208Z,19.17
2023-10-11T22:30:48.202Z,19.09
2023-10-11T22:33:15.503Z,19.36
2023-10-11T22:35:43.707Z,19.14
2023-10-11T22:38:10.807Z,19.02
2023-10-11T22:40:39.984Z,19.10
2023-10-11T22:43:17.519Z,19.11
2023-10-11T22:45:52.817Z,18.81
2023-10-11T22:48:20.731Z,18.94
2023-10-11T22:50:47.766Z,18.97
2023-10-11T22:53:14.701Z,19.14
2023-10-11T22:55:42.317Z,19.03
2023-10-11T22:58:09.160Z,18.86
2023-10-11T23:00:36.380Z,18.61
2023-10-11T23:03:03.738Z,18.65
2023-10-11T23:05:31.555Z,18.53
2023-10-11T23:07:59.134Z,18.25
2023-10-11T23:10:27.351Z,18.63
2023-10-11T23:12:57.916Z,18.66
2023-10-11T23:15:29.700Z,19.41
2023-10-11T23:17:58.977Z,19.37
2023-10-11T23:20:37.756Z,19.29
2023-10-11T23:23:13.499Z,19.53
2023-10-11T23:25:50.562Z,19.60
2023-10-11T23:28:23.013Z,19.60
2023-10-11T23:30:56.602Z,20.03
2023-10-11T23:33:26.062Z,19.72
2023-10-11T23:35:53.000Z,19.64
2023-10-11T23:38:27.808Z,20.02
2023-10-11T23:40:56.618Z,19.84
2023-10-11T23:43:30.015Z,19.43
2023-10-11T23:45:58.099Z,19.78
2023-10-11T23:48:34.257Z,19.69
2023-10-11T23:51:06.654Z,19.18
2023-10-11T23:53:44.300Z,18.98
2023-10-11T23:56:18.917Z,19.25
2023-10-11T23:58:57.704Z,19.60
